LKBA weather

Břeclav Airport
Břeclav, South Moravian Region, Czech Republic

Public forecast

Using degrees Celsius for public forecast. Weather courtesy of forecast.io.

Closest aviation weather report (METAR) to Břeclav Airport

Closest report is Brno-Tuřany Airport, 23.1 nm (42.7 km) NNW. Retrieved 2019/12/14 04:30 UTC (11 minutes ago):

LKTB 140430Z 09004KT 8000 NSC 00/M01 Q0994 R27/25//95 NOSIG

Closest aviation forecast (TAF) to Břeclav Airport

Closest forecast is Brno-Tuřany Airport, 23.1 nm (42.7 km) NNW. Retrieved 2019-12-14 00:12 UTC (4 hours ago):

TAF LKTB 132300Z 1400/1506 15006KT 5000 BR BKN015 BECMG 1400/1402 2000 BR BKN007 PROB30 TEMPO 1402/1407 0700 FZFG BKN003 BECMG 1407/1410 19010KT 7000 BKN020 TEMPO 1410/1415 3000 RASN BKN010 BECMG 1415/1418 28014KT